sensor_id;sensor_type;location;lat;lon;timestamp;P1;durP1;ratioP1;P2;durP2;ratioP2
76703;SDS011;70080;44.504;0.168;2023-06-10T00:01:34;3.20;;;2.33;;
76703;SDS011;70080;44.504;0.168;2023-06-10T00:07:09;6.77;;;2.40;;
76703;SDS011;70080;44.504;0.168;2023-06-10T00:12:40;5.00;;;2.57;;
76703;SDS011;70080;44.504;0.168;2023-06-10T00:18:12;2.77;;;2.00;;
76703;SDS011;70080;44.504;0.168;2023-06-10T00:23:45;4.30;;;2.33;;
76703;SDS011;70080;44.504;0.168;2023-06-10T00:29:19;3.87;;;2.10;;
76703;SDS011;70080;44.504;0.168;2023-06-10T00:34:51;5.00;;;2.03;;
76703;SDS011;70080;44.504;0.168;2023-06-10T00:40:24;1.90;;;1.50;;
76703;SDS011;70080;44.504;0.168;2023-06-10T00:45:57;6.73;;;1.90;;
76703;SDS011;70080;44.504;0.168;2023-06-10T00:51:29;9.03;;;2.37;;
76703;SDS011;70080;44.504;0.168;2023-06-10T00:57:01;5.77;;;2.90;;
76703;SDS011;70080;44.504;0.168;2023-06-10T01:02:35;7.93;;;2.07;;
76703;SDS011;70080;44.504;0.168;2023-06-10T01:08:09;5.07;;;2.30;;
76703;SDS011;70080;44.504;0.168;2023-06-10T01:13:42;6.70;;;2.30;;
76703;SDS011;70080;44.504;0.168;2023-06-10T01:19:18;3.37;;;2.40;;
76703;SDS011;70080;44.504;0.168;2023-06-10T01:24:51;4.63;;;2.37;;
76703;SDS011;70080;44.504;0.168;2023-06-10T01:30:23;6.97;;;2.60;;
76703;SDS011;70080;44.504;0.168;2023-06-10T01:35:54;2.70;;;2.10;;
76703;SDS011;70080;44.504;0.168;2023-06-10T01:41:27;5.30;;;2.70;;
76703;SDS011;70080;44.504;0.168;2023-06-10T01:47:00;6.20;;;2.57;;
76703;SDS011;70080;44.504;0.168;2023-06-10T01:52:32;2.97;;;2.10;;
76703;SDS011;70080;44.504;0.168;2023-06-10T01:58:04;4.63;;;2.70;;
76703;SDS011;70080;44.504;0.168;2023-06-10T02:03:37;4.47;;;2.50;;
76703;SDS011;70080;44.504;0.168;2023-06-10T02:09:12;4.77;;;2.17;;
76703;SDS011;70080;44.504;0.168;2023-06-10T02:14:43;4.33;;;2.00;;
76703;SDS011;70080;44.504;0.168;2023-06-10T02:20:15;6.20;;;3.07;;
76703;SDS011;70080;44.504;0.168;2023-06-10T02:25:48;3.73;;;2.73;;
76703;SDS011;70080;44.504;0.168;2023-06-10T02:31:22;7.73;;;2.20;;
76703;SDS011;70080;44.504;0.168;2023-06-10T02:36:54;12.13;;;3.07;;
76703;SDS011;70080;44.504;0.168;2023-06-10T02:42:27;7.03;;;3.00;;
76703;SDS011;70080;44.504;0.168;2023-06-10T02:47:59;8.67;;;2.83;;
76703;SDS011;70080;44.504;0.168;2023-06-10T02:53:31;7.13;;;2.90;;
76703;SDS011;70080;44.504;0.168;2023-06-10T02:59:04;9.43;;;2.90;;
76703;SDS011;70080;44.504;0.168;2023-06-10T03:04:38;5.90;;;3.33;;
76703;SDS011;70080;44.504;0.168;2023-06-10T03:10:09;5.00;;;3.13;;
76703;SDS011;70080;44.504;0.168;2023-06-10T03:15:42;5.50;;;3.23;;
76703;SDS011;70080;44.504;0.168;2023-06-10T03:21:15;8.73;;;3.53;;
76703;SDS011;70080;44.504;0.168;2023-06-10T03:26:48;22.90;;;5.80;;
76703;SDS011;70080;44.504;0.168;2023-06-10T03:32:20;26.90;;;5.63;;
76703;SDS011;70080;44.504;0.168;2023-06-10T03:37:54;36.43;;;5.67;;
76703;SDS011;70080;44.504;0.168;2023-06-10T03:43:28;27.97;;;5.20;;
76703;SDS011;70080;44.504;0.168;2023-06-10T03:49:01;29.03;;;6.40;;
76703;SDS011;70080;44.504;0.168;2023-06-10T03:54:34;38.13;;;6.20;;
76703;SDS011;70080;44.504;0.168;2023-06-10T04:00:11;22.27;;;6.50;;
76703;SDS011;70080;44.504;0.168;2023-06-10T04:05:38;15.17;;;4.40;;
76703;SDS011;70080;44.504;0.168;2023-06-10T04:11:10;19.80;;;5.40;;
76703;SDS011;70080;44.504;0.168;2023-06-10T04:16:43;10.23;;;4.40;;
76703;SDS011;70080;44.504;0.168;2023-06-10T04:22:16;14.47;;;4.57;;
76703;SDS011;70080;44.504;0.168;2023-06-10T04:27:48;16.30;;;5.27;;
76703;SDS011;70080;44.504;0.168;2023-06-10T04:33:21;20.17;;;5.87;;
76703;SDS011;70080;44.504;0.168;2023-06-10T04:38:54;26.10;;;5.63;;
76703;SDS011;70080;44.504;0.168;2023-06-10T04:44:27;14.03;;;6.43;;
76703;SDS011;70080;44.504;0.168;2023-06-10T04:50:00;17.90;;;5.80;;
76703;SDS011;70080;44.504;0.168;2023-06-10T04:55:34;14.83;;;5.57;;
76703;SDS011;70080;44.504;0.168;2023-06-10T05:01:05;17.33;;;6.40;;
76703;SDS011;70080;44.504;0.168;2023-06-10T05:06:38;16.43;;;6.57;;
76703;SDS011;70080;44.504;0.168;2023-06-10T05:12:11;16.17;;;7.13;;
76703;SDS011;70080;44.504;0.168;2023-06-10T05:17:43;16.37;;;7.13;;
76703;SDS011;70080;44.504;0.168;2023-06-10T05:23:16;15.23;;;6.60;;
76703;SDS011;70080;44.504;0.168;2023-06-10T05:28:48;16.70;;;6.63;;
76703;SDS011;70080;44.504;0.168;2023-06-10T05:34:21;13.33;;;6.47;;
76703;SDS011;70080;44.504;0.168;2023-06-10T05:39:53;11.80;;;6.13;;
76703;SDS011;70080;44.504;0.168;2023-06-10T05:45:27;11.33;;;6.17;;
76703;SDS011;70080;44.504;0.168;2023-06-10T05:50:58;10.30;;;5.47;;
76703;SDS011;70080;44.504;0.168;2023-06-10T05:56:31;9.93;;;6.20;;
76703;SDS011;70080;44.504;0.168;2023-06-10T06:02:04;16.90;;;6.83;;
76703;SDS011;70080;44.504;0.168;2023-06-10T06:07:37;13.40;;;7.30;;
76703;SDS011;70080;44.504;0.168;2023-06-10T06:13:09;17.20;;;7.63;;
76703;SDS011;70080;44.504;0.168;2023-06-10T06:18:42;14.70;;;6.47;;
76703;SDS011;70080;44.504;0.168;2023-06-10T06:24:14;12.20;;;6.87;;
76703;SDS011;70080;44.504;0.168;2023-06-10T06:29:47;10.63;;;6.00;;
76703;SDS011;70080;44.504;0.168;2023-06-10T06:35:21;8.47;;;5.47;;
76703;SDS011;70080;44.504;0.168;2023-06-10T06:40:53;9.80;;;5.20;;
76703;SDS011;70080;44.504;0.168;2023-06-10T06:46:27;9.03;;;5.50;;
76703;SDS011;70080;44.504;0.168;2023-06-10T06:51:59;10.50;;;5.07;;
76703;SDS011;70080;44.504;0.168;2023-06-10T06:57:33;7.33;;;4.70;;
76703;SDS011;70080;44.504;0.168;2023-06-10T07:03:05;8.40;;;4.37;;
76703;SDS011;70080;44.504;0.168;2023-06-10T07:08:39;6.27;;;4.20;;
76703;SDS011;70080;44.504;0.168;2023-06-10T07:14:12;7.43;;;3.60;;
76703;SDS011;70080;44.504;0.168;2023-06-10T07:19:45;5.80;;;3.13;;
76703;SDS011;70080;44.504;0.168;2023-06-10T07:25:17;6.80;;;3.77;;
76703;SDS011;70080;44.504;0.168;2023-06-10T07:30:51;5.43;;;3.33;;
76703;SDS011;70080;44.504;0.168;2023-06-10T07:36:23;3.77;;;2.77;;
76703;SDS011;70080;44.504;0.168;2023-06-10T07:41:57;7.90;;;2.87;;
76703;SDS011;70080;44.504;0.168;2023-06-10T07:47:28;5.67;;;3.20;;
76703;SDS011;70080;44.504;0.168;2023-06-10T07:53:00;6.40;;;3.13;;
76703;SDS011;70080;44.504;0.168;2023-06-10T07:58:32;4.40;;;3.17;;
76703;SDS011;70080;44.504;0.168;2023-06-10T08:04:06;7.03;;;2.53;;
76703;SDS011;70080;44.504;0.168;2023-06-10T08:09:39;4.50;;;3.00;;
76703;SDS011;70080;44.504;0.168;2023-06-10T08:15:12;4.27;;;2.50;;
76703;SDS011;70080;44.504;0.168;2023-06-10T08:20:45;3.40;;;2.63;;
76703;SDS011;70080;44.504;0.168;2023-06-10T08:26:18;4.90;;;3.30;;
76703;SDS011;70080;44.504;0.168;2023-06-10T08:31:51;3.30;;;2.80;;
76703;SDS011;70080;44.504;0.168;2023-06-10T08:37:24;4.07;;;3.23;;
76703;SDS011;70080;44.504;0.168;2023-06-10T08:43:00;5.00;;;3.00;;
76703;SDS011;70080;44.504;0.168;2023-06-10T08:48:30;9.10;;;2.57;;
76703;SDS011;70080;44.504;0.168;2023-06-10T08:54:05;5.53;;;2.93;;
76703;SDS011;70080;44.504;0.168;2023-06-10T08:59:36;4.50;;;2.37;;
76703;SDS011;70080;44.504;0.168;2023-06-10T09:05:09;4.53;;;2.40;;
76703;SDS011;70080;44.504;0.168;2023-06-10T09:10:40;3.63;;;2.60;;
76703;SDS011;70080;44.504;0.168;2023-06-10T09:16:13;4.50;;;2.87;;
76703;SDS011;70080;44.504;0.168;2023-06-10T09:21:45;5.03;;;2.40;;
76703;SDS011;70080;44.504;0.168;2023-06-10T09:27:18;5.00;;;2.90;;
76703;SDS011;70080;44.504;0.168;2023-06-10T09:32:51;4.77;;;3.13;;
76703;SDS011;70080;44.504;0.168;2023-06-10T09:38:29;3.97;;;2.40;;
76703;SDS011;70080;44.504;0.168;2023-06-10T09:43:57;4.87;;;2.47;;
76703;SDS011;70080;44.504;0.168;2023-06-10T09:49:29;-1.00;;;-1.00;;
76703;SDS011;70080;44.504;0.168;2023-06-10T09:55:03;4.40;;;2.53;;
76703;SDS011;70080;44.504;0.168;2023-06-10T10:00:35;3.90;;;2.07;;
76703;SDS011;70080;44.504;0.168;2023-06-10T10:06:09;3.37;;;2.20;;
76703;SDS011;70080;44.504;0.168;2023-06-10T10:11:42;6.03;;;2.77;;
76703;SDS011;70080;44.504;0.168;2023-06-10T10:17:15;4.13;;;2.90;;
76703;SDS011;70080;44.504;0.168;2023-06-10T10:22:47;3.40;;;2.53;;
76703;SDS011;70080;44.504;0.168;2023-06-10T10:28:19;3.97;;;2.27;;
76703;SDS011;70080;44.504;0.168;2023-06-10T10:33:53;3.50;;;2.03;;
76703;SDS011;70080;44.504;0.168;2023-06-10T10:39:24;-1.00;;;-1.00;;
76703;SDS011;70080;44.504;0.168;2023-06-10T10:44:57;5.73;;;2.67;;
76703;SDS011;70080;44.504;0.168;2023-06-10T10:50:31;-1.00;;;-1.00;;
76703;SDS011;70080;44.504;0.168;2023-06-10T10:56:05;3.13;;;2.43;;
76703;SDS011;70080;44.504;0.168;2023-06-10T11:01:40;-1.00;;;-1.00;;
76703;SDS011;70080;44.504;0.168;2023-06-10T11:07:08;3.43;;;2.73;;
76703;SDS011;70080;44.504;0.168;2023-06-10T11:12:50;3.87;;;2.40;;
76703;SDS011;70080;44.504;0.168;2023-06-10T11:18:14;4.67;;;2.63;;
76703;SDS011;70080;44.504;0.168;2023-06-10T11:23:45;4.17;;;2.30;;
76703;SDS011;70080;44.504;0.168;2023-06-10T11:29:18;5.77;;;3.00;;
76703;SDS011;70080;44.504;0.168;2023-06-10T11:34:52;7.07;;;2.67;;
76703;SDS011;70080;44.504;0.168;2023-06-10T11:40:22;7.73;;;2.83;;
76703;SDS011;70080;44.504;0.168;2023-06-10T11:45:56;5.37;;;2.57;;
76703;SDS011;70080;44.504;0.168;2023-06-10T11:51:29;3.90;;;3.20;;
76703;SDS011;70080;44.504;0.168;2023-06-10T11:57:03;3.30;;;2.80;;
76703;SDS011;70080;44.504;0.168;2023-06-10T12:02:34;3.90;;;2.30;;
76703;SDS011;70080;44.504;0.168;2023-06-10T12:08:08;3.17;;;2.50;;
76703;SDS011;70080;44.504;0.168;2023-06-10T12:13:45;-1.00;;;-1.00;;
76703;SDS011;70080;44.504;0.168;2023-06-10T12:19:14;2.80;;;2.60;;
76703;SDS011;70080;44.504;0.168;2023-06-10T12:24:56;2.73;;;2.23;;
76703;SDS011;70080;44.504;0.168;2023-06-10T12:30:19;3.23;;;2.37;;
76703;SDS011;70080;44.504;0.168;2023-06-10T12:35:52;3.33;;;2.60;;
76703;SDS011;70080;44.504;0.168;2023-06-10T12:41:28;4.73;;;2.33;;
76703;SDS011;70080;44.504;0.168;2023-06-10T12:46:58;3.17;;;2.57;;
76703;SDS011;70080;44.504;0.168;2023-06-10T12:52:33;5.53;;;2.10;;
76703;SDS011;70080;44.504;0.168;2023-06-10T12:58:05;3.23;;;2.33;;
76703;SDS011;70080;44.504;0.168;2023-06-10T13:03:39;3.73;;;2.10;;
76703;SDS011;70080;44.504;0.168;2023-06-10T13:09:10;3.40;;;2.47;;
76703;SDS011;70080;44.504;0.168;2023-06-10T13:14:43;2.80;;;2.20;;
76703;SDS011;70080;44.504;0.168;2023-06-10T13:20:16;4.30;;;1.90;;
76703;SDS011;70080;44.504;0.168;2023-06-10T13:25:49;2.87;;;2.00;;
76703;SDS011;70080;44.504;0.168;2023-06-10T13:31:22;2.23;;;2.03;;
76703;SDS011;70080;44.504;0.168;2023-06-10T13:36:55;3.53;;;2.50;;
76703;SDS011;70080;44.504;0.168;2023-06-10T13:42:27;4.13;;;2.20;;
76703;SDS011;70080;44.504;0.168;2023-06-10T13:48:00;2.10;;;1.93;;
76703;SDS011;70080;44.504;0.168;2023-06-10T13:53:33;4.00;;;1.93;;
76703;SDS011;70080;44.504;0.168;2023-06-10T13:59:06;-1.00;;;-1.00;;
76703;SDS011;70080;44.504;0.168;2023-06-10T14:04:40;2.60;;;1.97;;
76703;SDS011;70080;44.504;0.168;2023-06-10T14:10:11;5.63;;;3.07;;
76703;SDS011;70080;44.504;0.168;2023-06-10T14:15:44;2.13;;;1.93;;
76703;SDS011;70080;44.504;0.168;2023-06-10T14:21:17;3.20;;;2.13;;
76703;SDS011;70080;44.504;0.168;2023-06-10T14:26:51;1.87;;;1.70;;
76703;SDS011;70080;44.504;0.168;2023-06-10T14:32:23;2.57;;;2.20;;
76703;SDS011;70080;44.504;0.168;2023-06-10T14:37:56;2.83;;;2.30;;
76703;SDS011;70080;44.504;0.168;2023-06-10T14:43:29;4.27;;;2.00;;
76703;SDS011;70080;44.504;0.168;2023-06-10T14:49:03;2.83;;;2.30;;
76703;SDS011;70080;44.504;0.168;2023-06-10T14:54:33;3.20;;;2.00;;
76703;SDS011;70080;44.504;0.168;2023-06-10T15:00:07;1.87;;;1.77;;
76703;SDS011;70080;44.504;0.168;2023-06-10T15:05:40;2.03;;;1.80;;
76703;SDS011;70080;44.504;0.168;2023-06-10T15:11:13;3.63;;;2.30;;
76703;SDS011;70080;44.504;0.168;2023-06-10T15:16:46;2.40;;;2.10;;
76703;SDS011;70080;44.504;0.168;2023-06-10T15:22:18;2.60;;;2.07;;
76703;SDS011;70080;44.504;0.168;2023-06-10T15:27:52;2.20;;;2.00;;
76703;SDS011;70080;44.504;0.168;2023-06-10T15:33:24;4.53;;;2.07;;
76703;SDS011;70080;44.504;0.168;2023-06-10T15:38:56;3.97;;;2.37;;
76703;SDS011;70080;44.504;0.168;2023-06-10T15:44:28;2.23;;;2.03;;
76703;SDS011;70080;44.504;0.168;2023-06-10T15:50:01;3.07;;;2.20;;
76703;SDS011;70080;44.504;0.168;2023-06-10T15:55:34;2.30;;;2.10;;
76703;SDS011;70080;44.504;0.168;2023-06-10T16:01:07;2.30;;;2.10;;
76703;SDS011;70080;44.504;0.168;2023-06-10T16:06:40;2.73;;;2.00;;
76703;SDS011;70080;44.504;0.168;2023-06-10T16:12:14;3.63;;;2.50;;
76703;SDS011;70080;44.504;0.168;2023-06-10T16:17:47;2.40;;;1.90;;
76703;SDS011;70080;44.504;0.168;2023-06-10T16:23:19;4.03;;;2.10;;
76703;SDS011;70080;44.504;0.168;2023-06-10T16:28:53;4.13;;;1.97;;
76703;SDS011;70080;44.504;0.168;2023-06-10T16:34:26;2.77;;;1.50;;
76703;SDS011;70080;44.504;0.168;2023-06-10T16:39:58;1.80;;;1.60;;
76703;SDS011;70080;44.504;0.168;2023-06-10T16:45:30;5.40;;;1.40;;
76703;SDS011;70080;44.504;0.168;2023-06-10T16:51:02;2.17;;;1.60;;
76703;SDS011;70080;44.504;0.168;2023-06-10T16:56:36;2.60;;;1.83;;
76703;SDS011;70080;44.504;0.168;2023-06-10T17:02:08;3.27;;;2.10;;
76703;SDS011;70080;44.504;0.168;2023-06-10T17:07:40;2.30;;;2.03;;
76703;SDS011;70080;44.504;0.168;2023-06-10T17:13:12;3.33;;;1.90;;
76703;SDS011;70080;44.504;0.168;2023-06-10T17:18:43;3.17;;;2.07;;
76703;SDS011;70080;44.504;0.168;2023-06-10T17:24:17;3.10;;;2.20;;
76703;SDS011;70080;44.504;0.168;2023-06-10T17:29:48;3.07;;;2.30;;
76703;SDS011;70080;44.504;0.168;2023-06-10T17:35:21;4.37;;;2.50;;
76703;SDS011;70080;44.504;0.168;2023-06-10T17:40:54;6.77;;;3.03;;
76703;SDS011;70080;44.504;0.168;2023-06-10T17:46:27;3.47;;;2.27;;
76703;SDS011;70080;44.504;0.168;2023-06-10T17:51:59;4.40;;;2.90;;
76703;SDS011;70080;44.504;0.168;2023-06-10T17:57:32;3.23;;;2.23;;
76703;SDS011;70080;44.504;0.168;2023-06-10T18:03:03;7.77;;;2.80;;
76703;SDS011;70080;44.504;0.168;2023-06-10T18:08:37;-1.00;;;-1.00;;
76703;SDS011;70080;44.504;0.168;2023-06-10T18:14:10;5.33;;;2.40;;
76703;SDS011;70080;44.504;0.168;2023-06-10T18:19:43;5.50;;;2.60;;
76703;SDS011;70080;44.504;0.168;2023-06-10T18:25:15;4.33;;;2.23;;
76703;SDS011;70080;44.504;0.168;2023-06-10T18:30:47;3.10;;;2.80;;
76703;SDS011;70080;44.504;0.168;2023-06-10T18:36:20;2.93;;;2.43;;
76703;SDS011;70080;44.504;0.168;2023-06-10T18:41:53;3.43;;;2.30;;
76703;SDS011;70080;44.504;0.168;2023-06-10T18:47:26;7.97;;;2.30;;
76703;SDS011;70080;44.504;0.168;2023-06-10T18:53:00;2.60;;;2.00;;
76703;SDS011;70080;44.504;0.168;2023-06-10T18:58:33;5.87;;;3.03;;
76703;SDS011;70080;44.504;0.168;2023-06-10T19:04:05;4.20;;;2.47;;
76703;SDS011;70080;44.504;0.168;2023-06-10T19:09:38;3.10;;;2.33;;
76703;SDS011;70080;44.504;0.168;2023-06-10T19:15:11;3.93;;;2.20;;
76703;SDS011;70080;44.504;0.168;2023-06-10T19:20:44;5.00;;;2.40;;
76703;SDS011;70080;44.504;0.168;2023-06-10T19:26:17;5.50;;;3.30;;
76703;SDS011;70080;44.504;0.168;2023-06-10T19:31:48;6.00;;;2.77;;
76703;SDS011;70080;44.504;0.168;2023-06-10T19:37:20;5.07;;;3.10;;
76703;SDS011;70080;44.504;0.168;2023-06-10T19:42:53;6.47;;;4.03;;
76703;SDS011;70080;44.504;0.168;2023-06-10T19:48:26;5.57;;;2.33;;
76703;SDS011;70080;44.504;0.168;2023-06-10T19:53:58;4.17;;;2.47;;
76703;SDS011;70080;44.504;0.168;2023-06-10T19:59:32;1.97;;;1.63;;
76703;SDS011;70080;44.504;0.168;2023-06-10T20:05:03;2.10;;;1.40;;
76703;SDS011;70080;44.504;0.168;2023-06-10T20:10:37;1.87;;;1.33;;
76703;SDS011;70080;44.504;0.168;2023-06-10T20:16:08;4.00;;;1.47;;
76703;SDS011;70080;44.504;0.168;2023-06-10T20:21:41;4.00;;;2.00;;
76703;SDS011;70080;44.504;0.168;2023-06-10T20:27:14;1.97;;;1.40;;
76703;SDS011;70080;44.504;0.168;2023-06-10T20:32:46;1.70;;;1.20;;
76703;SDS011;70080;44.504;0.168;2023-06-10T20:38:18;1.40;;;1.00;;
76703;SDS011;70080;44.504;0.168;2023-06-10T20:43:52;2.27;;;1.20;;
76703;SDS011;70080;44.504;0.168;2023-06-10T20:49:24;2.37;;;1.17;;
76703;SDS011;70080;44.504;0.168;2023-06-10T20:54:57;5.17;;;1.67;;
76703;SDS011;70080;44.504;0.168;2023-06-10T21:00:29;2.90;;;1.13;;
76703;SDS011;70080;44.504;0.168;2023-06-10T21:06:03;1.90;;;1.30;;
76703;SDS011;70080;44.504;0.168;2023-06-10T21:11:36;4.20;;;1.83;;
76703;SDS011;70080;44.504;0.168;2023-06-10T21:17:09;2.53;;;1.47;;
76703;SDS011;70080;44.504;0.168;2023-06-10T21:22:41;4.53;;;1.63;;
76703;SDS011;70080;44.504;0.168;2023-06-10T21:28:15;3.47;;;1.40;;
76703;SDS011;70080;44.504;0.168;2023-06-10T21:33:46;2.20;;;1.50;;
76703;SDS011;70080;44.504;0.168;2023-06-10T21:39:19;1.07;;;1.00;;
76703;SDS011;70080;44.504;0.168;2023-06-10T21:44:51;1.50;;;0.90;;
76703;SDS011;70080;44.504;0.168;2023-06-10T21:50:25;4.23;;;1.10;;
76703;SDS011;70080;44.504;0.168;2023-06-10T21:55:57;1.43;;;0.90;;
76703;SDS011;70080;44.504;0.168;2023-06-10T22:01:31;3.83;;;1.10;;
76703;SDS011;70080;44.504;0.168;2023-06-10T22:07:03;1.87;;;1.13;;
76703;SDS011;70080;44.504;0.168;2023-06-10T22:12:35;2.57;;;1.33;;
76703;SDS011;70080;44.504;0.168;2023-06-10T22:18:09;1.73;;;1.20;;
76703;SDS011;70080;44.504;0.168;2023-06-10T22:23:41;3.00;;;1.30;;
76703;SDS011;70080;44.504;0.168;2023-06-10T22:29:14;2.40;;;1.23;;
76703;SDS011;70080;44.504;0.168;2023-06-10T22:34:46;1.80;;;1.30;;
76703;SDS011;70080;44.504;0.168;2023-06-10T22:40:19;1.57;;;1.30;;
76703;SDS011;70080;44.504;0.168;2023-06-10T22:45:51;4.23;;;1.27;;
76703;SDS011;70080;44.504;0.168;2023-06-10T22:51:25;3.67;;;1.40;;
76703;SDS011;70080;44.504;0.168;2023-06-10T22:56:57;3.20;;;1.63;;
76703;SDS011;70080;44.504;0.168;2023-06-10T23:02:29;2.17;;;1.37;;
76703;SDS011;70080;44.504;0.168;2023-06-10T23:08:02;1.40;;;1.10;;
76703;SDS011;70080;44.504;0.168;2023-06-10T23:13:35;3.33;;;1.47;;
76703;SDS011;70080;44.504;0.168;2023-06-10T23:19:09;4.37;;;1.27;;
76703;SDS011;70080;44.504;0.168;2023-06-10T23:24:41;1.50;;;1.20;;
76703;SDS011;70080;44.504;0.168;2023-06-10T23:30:13;3.37;;;1.50;;
76703;SDS011;70080;44.504;0.168;2023-06-10T23:35:46;4.37;;;1.27;;
76703;SDS011;70080;44.504;0.168;2023-06-10T23:41:18;1.70;;;1.40;;
76703;SDS011;70080;44.504;0.168;2023-06-10T23:46:51;1.63;;;1.27;;
76703;SDS011;70080;44.504;0.168;2023-06-10T23:52:24;2.13;;;1.17;;
76703;SDS011;70080;44.504;0.168;2023-06-10T23:57:57;1.53;;;1.07;;
